sensor_id;sensor_type;location;lat;lon;timestamp;P1;durP1;ratioP1;P2;durP2;ratioP2
5026;SDS011;2532;52.480;13.354;2023-12-20T00:02:18;8.43;;;5.77;;
5026;SDS011;2532;52.480;13.354;2023-12-20T00:04:44;6.00;;;5.40;;
5026;SDS011;2532;52.480;13.354;2023-12-20T00:07:13;7.80;;;5.30;;
5026;SDS011;2532;52.480;13.354;2023-12-20T00:09:40;6.03;;;4.80;;
5026;SDS011;2532;52.480;13.354;2023-12-20T00:12:07;8.07;;;6.70;;
5026;SDS011;2532;52.480;13.354;2023-12-20T00:14:34;6.00;;;5.33;;
5026;SDS011;2532;52.480;13.354;2023-12-20T00:17:01;6.83;;;5.60;;
5026;SDS011;2532;52.480;13.354;2023-12-20T00:19:28;6.63;;;5.47;;
5026;SDS011;2532;52.480;13.354;2023-12-20T00:21:54;7.00;;;5.60;;
5026;SDS011;2532;52.480;13.354;2023-12-20T00:24:23;6.37;;;5.70;;
5026;SDS011;2532;52.480;13.354;2023-12-20T00:26:50;6.50;;;5.80;;
5026;SDS011;2532;52.480;13.354;2023-12-20T00:29:16;5.60;;;5.00;;
5026;SDS011;2532;52.480;13.354;2023-12-20T00:31:43;5.73;;;4.77;;
5026;SDS011;2532;52.480;13.354;2023-12-20T00:34:10;6.80;;;5.23;;
5026;SDS011;2532;52.480;13.354;2023-12-20T00:36:37;6.20;;;4.97;;
5026;SDS011;2532;52.480;13.354;2023-12-20T00:39:04;6.50;;;5.10;;
5026;SDS011;2532;52.480;13.354;2023-12-20T00:41:33;6.30;;;5.40;;
5026;SDS011;2532;52.480;13.354;2023-12-20T00:44:00;5.00;;;4.50;;
5026;SDS011;2532;52.480;13.354;2023-12-20T00:46:28;6.67;;;5.10;;
5026;SDS011;2532;52.480;13.354;2023-12-20T00:48:54;4.70;;;4.20;;
5026;SDS011;2532;52.480;13.354;2023-12-20T00:51:21;5.60;;;4.90;;
5026;SDS011;2532;52.480;13.354;2023-12-20T00:53:49;5.53;;;4.73;;
5026;SDS011;2532;52.480;13.354;2023-12-20T00:56:19;5.60;;;4.90;;
5026;SDS011;2532;52.480;13.354;2023-12-20T00:58:48;5.10;;;4.43;;
5026;SDS011;2532;52.480;13.354;2023-12-20T01:01:15;6.80;;;4.80;;
5026;SDS011;2532;52.480;13.354;2023-12-20T01:03:45;5.27;;;4.57;;
5026;SDS011;2532;52.480;13.354;2023-12-20T01:06:12;5.37;;;4.87;;
5026;SDS011;2532;52.480;13.354;2023-12-20T01:08:39;5.70;;;4.60;;
5026;SDS011;2532;52.480;13.354;2023-12-20T01:11:06;5.23;;;4.70;;
5026;SDS011;2532;52.480;13.354;2023-12-20T01:13:33;5.30;;;4.80;;
5026;SDS011;2532;52.480;13.354;2023-12-20T01:16:01;4.87;;;4.37;;
5026;SDS011;2532;52.480;13.354;2023-12-20T01:18:29;7.30;;;5.13;;
5026;SDS011;2532;52.480;13.354;2023-12-20T01:20:55;5.73;;;5.13;;
5026;SDS011;2532;52.480;13.354;2023-12-20T01:23:27;6.60;;;5.23;;
5026;SDS011;2532;52.480;13.354;2023-12-20T01:25:54;5.87;;;5.17;;
5026;SDS011;2532;52.480;13.354;2023-12-20T01:28:21;7.40;;;5.37;;
5026;SDS011;2532;52.480;13.354;2023-12-20T01:30:48;7.23;;;5.60;;
5026;SDS011;2532;52.480;13.354;2023-12-20T01:33:16;5.23;;;4.60;;
5026;SDS011;2532;52.480;13.354;2023-12-20T01:35:43;5.07;;;4.43;;
5026;SDS011;2532;52.480;13.354;2023-12-20T01:38:10;5.93;;;4.70;;
5026;SDS011;2532;52.480;13.354;2023-12-20T01:40:36;6.10;;;5.17;;
5026;SDS011;2532;52.480;13.354;2023-12-20T01:43:06;6.63;;;5.27;;
5026;SDS011;2532;52.480;13.354;2023-12-20T01:45:36;7.27;;;4.73;;
5026;SDS011;2532;52.480;13.354;2023-12-20T01:48:03;4.33;;;3.93;;
5026;SDS011;2532;52.480;13.354;2023-12-20T01:50:33;4.93;;;4.30;;
5026;SDS011;2532;52.480;13.354;2023-12-20T01:53:03;5.80;;;5.07;;
5026;SDS011;2532;52.480;13.354;2023-12-20T01:55:32;5.53;;;4.73;;
5026;SDS011;2532;52.480;13.354;2023-12-20T01:58:00;4.80;;;4.30;;
5026;SDS011;2532;52.480;13.354;2023-12-20T02:00:27;6.77;;;4.60;;
5026;SDS011;2532;52.480;13.354;2023-12-20T02:02:56;5.70;;;4.33;;
5026;SDS011;2532;52.480;13.354;2023-12-20T02:05:27;7.80;;;5.57;;
5026;SDS011;2532;52.480;13.354;2023-12-20T02:07:56;6.00;;;4.53;;
5026;SDS011;2532;52.480;13.354;2023-12-20T02:10:23;6.33;;;5.53;;
5026;SDS011;2532;52.480;13.354;2023-12-20T02:12:51;5.10;;;4.60;;
5026;SDS011;2532;52.480;13.354;2023-12-20T02:15:18;6.30;;;4.80;;
5026;SDS011;2532;52.480;13.354;2023-12-20T02:17:45;6.83;;;5.37;;
5026;SDS011;2532;52.480;13.354;2023-12-20T02:20:13;8.63;;;4.90;;
5026;SDS011;2532;52.480;13.354;2023-12-20T02:22:41;5.00;;;4.50;;
5026;SDS011;2532;52.480;13.354;2023-12-20T02:25:08;6.10;;;5.00;;
5026;SDS011;2532;52.480;13.354;2023-12-20T02:27:35;5.83;;;4.50;;
5026;SDS011;2532;52.480;13.354;2023-12-20T02:30:03;6.07;;;4.93;;
5026;SDS011;2532;52.480;13.354;2023-12-20T02:32:30;5.50;;;4.53;;
5026;SDS011;2532;52.480;13.354;2023-12-20T02:34:57;6.73;;;5.60;;
5026;SDS011;2532;52.480;13.354;2023-12-20T02:37:24;6.70;;;5.60;;
5026;SDS011;2532;52.480;13.354;2023-12-20T02:39:53;8.27;;;5.27;;
5026;SDS011;2532;52.480;13.354;2023-12-20T02:42:20;7.87;;;6.50;;
5026;SDS011;2532;52.480;13.354;2023-12-20T02:44:46;7.27;;;5.90;;
5026;SDS011;2532;52.480;13.354;2023-12-20T02:47:14;7.00;;;6.10;;
5026;SDS011;2532;52.480;13.354;2023-12-20T02:49:40;7.30;;;6.23;;
5026;SDS011;2532;52.480;13.354;2023-12-20T02:52:07;12.93;;;6.90;;
5026;SDS011;2532;52.480;13.354;2023-12-20T02:54:34;16.60;;;9.30;;
5026;SDS011;2532;52.480;13.354;2023-12-20T02:57:03;11.80;;;6.97;;
5026;SDS011;2532;52.480;13.354;2023-12-20T02:59:30;8.43;;;6.30;;
5026;SDS011;2532;52.480;13.354;2023-12-20T03:01:57;9.03;;;6.77;;
5026;SDS011;2532;52.480;13.354;2023-12-20T03:04:24;7.67;;;6.20;;
5026;SDS011;2532;52.480;13.354;2023-12-20T03:06:51;11.40;;;6.53;;
5026;SDS011;2532;52.480;13.354;2023-12-20T03:09:17;8.87;;;6.70;;
5026;SDS011;2532;52.480;13.354;2023-12-20T03:11:44;9.50;;;5.70;;
5026;SDS011;2532;52.480;13.354;2023-12-20T03:14:13;12.57;;;6.33;;
5026;SDS011;2532;52.480;13.354;2023-12-20T03:16:39;11.37;;;5.77;;
5026;SDS011;2532;52.480;13.354;2023-12-20T03:19:07;6.70;;;5.30;;
5026;SDS011;2532;52.480;13.354;2023-12-20T03:21:34;8.40;;;5.03;;
5026;SDS011;2532;52.480;13.354;2023-12-20T03:24:01;8.90;;;5.90;;
5026;SDS011;2532;52.480;13.354;2023-12-20T03:26:29;9.60;;;5.47;;
5026;SDS011;2532;52.480;13.354;2023-12-20T03:28:56;6.87;;;4.67;;
5026;SDS011;2532;52.480;13.354;2023-12-20T03:31:25;8.80;;;5.23;;
5026;SDS011;2532;52.480;13.354;2023-12-20T03:33:51;7.53;;;4.70;;
5026;SDS011;2532;52.480;13.354;2023-12-20T03:36:18;7.63;;;4.47;;
5026;SDS011;2532;52.480;13.354;2023-12-20T03:38:45;7.80;;;4.40;;
5026;SDS011;2532;52.480;13.354;2023-12-20T03:41:12;8.90;;;4.83;;
5026;SDS011;2532;52.480;13.354;2023-12-20T03:43:39;6.53;;;4.70;;
5026;SDS011;2532;52.480;13.354;2023-12-20T03:46:07;6.20;;;4.37;;
5026;SDS011;2532;52.480;13.354;2023-12-20T03:48:36;6.17;;;3.97;;
5026;SDS011;2532;52.480;13.354;2023-12-20T03:51:02;9.03;;;4.20;;
5026;SDS011;2532;52.480;13.354;2023-12-20T03:53:29;8.83;;;3.97;;
5026;SDS011;2532;52.480;13.354;2023-12-20T03:55:56;6.83;;;3.60;;
5026;SDS011;2532;52.480;13.354;2023-12-20T03:58:23;6.53;;;3.83;;
5026;SDS011;2532;52.480;13.354;2023-12-20T04:00:53;9.63;;;3.50;;
5026;SDS011;2532;52.480;13.354;2023-12-20T04:03:21;8.00;;;2.97;;
5026;SDS011;2532;52.480;13.354;2023-12-20T04:05:49;6.10;;;3.13;;
5026;SDS011;2532;52.480;13.354;2023-12-20T04:08:16;3.90;;;2.90;;
5026;SDS011;2532;52.480;13.354;2023-12-20T04:10:43;8.47;;;3.73;;
5026;SDS011;2532;52.480;13.354;2023-12-20T04:13:10;9.10;;;3.23;;
5026;SDS011;2532;52.480;13.354;2023-12-20T04:15:37;9.17;;;2.83;;
5026;SDS011;2532;52.480;13.354;2023-12-20T04:18:04;12.20;;;3.30;;
5026;SDS011;2532;52.480;13.354;2023-12-20T04:20:31;8.00;;;3.10;;
5026;SDS011;2532;52.480;13.354;2023-12-20T04:22:59;14.53;;;2.87;;
5026;SDS011;2532;52.480;13.354;2023-12-20T04:25:26;10.00;;;2.90;;
5026;SDS011;2532;52.480;13.354;2023-12-20T04:27:53;11.20;;;2.90;;
5026;SDS011;2532;52.480;13.354;2023-12-20T04:30:20;8.30;;;3.10;;
5026;SDS011;2532;52.480;13.354;2023-12-20T04:32:47;6.17;;;2.80;;
5026;SDS011;2532;52.480;13.354;2023-12-20T04:35:14;9.50;;;3.33;;
5026;SDS011;2532;52.480;13.354;2023-12-20T04:37:41;8.87;;;2.67;;
5026;SDS011;2532;52.480;13.354;2023-12-20T04:40:10;10.80;;;2.97;;
5026;SDS011;2532;52.480;13.354;2023-12-20T04:42:37;8.20;;;3.10;;
5026;SDS011;2532;52.480;13.354;2023-12-20T04:45:04;8.10;;;2.50;;
5026;SDS011;2532;52.480;13.354;2023-12-20T04:47:32;19.20;;;3.23;;
5026;SDS011;2532;52.480;13.354;2023-12-20T04:49:59;12.00;;;3.80;;
5026;SDS011;2532;52.480;13.354;2023-12-20T04:52:26;6.43;;;3.07;;
5026;SDS011;2532;52.480;13.354;2023-12-20T04:54:56;8.43;;;4.03;;
5026;SDS011;2532;52.480;13.354;2023-12-20T04:57:25;9.33;;;3.00;;
5026;SDS011;2532;52.480;13.354;2023-12-20T04:59:53;5.57;;;3.00;;
5026;SDS011;2532;52.480;13.354;2023-12-20T05:02:20;9.03;;;3.10;;
5026;SDS011;2532;52.480;13.354;2023-12-20T05:04:47;8.43;;;3.10;;
5026;SDS011;2532;52.480;13.354;2023-12-20T05:07:14;7.97;;;3.23;;
5026;SDS011;2532;52.480;13.354;2023-12-20T05:09:41;6.73;;;3.03;;
5026;SDS011;2532;52.480;13.354;2023-12-20T05:12:08;8.47;;;3.00;;
5026;SDS011;2532;52.480;13.354;2023-12-20T05:14:36;6.30;;;3.53;;
5026;SDS011;2532;52.480;13.354;2023-12-20T05:17:04;9.47;;;3.13;;
5026;SDS011;2532;52.480;13.354;2023-12-20T05:19:31;5.30;;;2.70;;
5026;SDS011;2532;52.480;13.354;2023-12-20T05:22:00;8.13;;;2.90;;
5026;SDS011;2532;52.480;13.354;2023-12-20T05:24:27;10.23;;;3.10;;
5026;SDS011;2532;52.480;13.354;2023-12-20T05:26:54;9.10;;;2.80;;
5026;SDS011;2532;52.480;13.354;2023-12-20T05:29:21;10.87;;;2.63;;
5026;SDS011;2532;52.480;13.354;2023-12-20T05:31:52;6.27;;;3.03;;
5026;SDS011;2532;52.480;13.354;2023-12-20T05:34:20;11.70;;;3.90;;
5026;SDS011;2532;52.480;13.354;2023-12-20T05:36:47;14.23;;;3.50;;
5026;SDS011;2532;52.480;13.354;2023-12-20T05:39:14;11.70;;;3.30;;
5026;SDS011;2532;52.480;13.354;2023-12-20T05:41:40;10.13;;;3.37;;
5026;SDS011;2532;52.480;13.354;2023-12-20T05:44:07;8.87;;;2.83;;
5026;SDS011;2532;52.480;13.354;2023-12-20T05:46:35;11.27;;;2.80;;
5026;SDS011;2532;52.480;13.354;2023-12-20T05:49:04;7.63;;;6.13;;
5026;SDS011;2532;52.480;13.354;2023-12-20T05:51:31;10.87;;;3.70;;
5026;SDS011;2532;52.480;13.354;2023-12-20T05:53:58;7.87;;;3.00;;
5026;SDS011;2532;52.480;13.354;2023-12-20T05:56:25;9.20;;;3.10;;
5026;SDS011;2532;52.480;13.354;2023-12-20T05:58:52;11.00;;;2.70;;
5026;SDS011;2532;52.480;13.354;2023-12-20T06:01:19;13.70;;;2.80;;
5026;SDS011;2532;52.480;13.354;2023-12-20T06:03:46;12.40;;;3.50;;
5026;SDS011;2532;52.480;13.354;2023-12-20T06:06:15;12.57;;;3.33;;
5026;SDS011;2532;52.480;13.354;2023-12-20T06:08:42;8.17;;;2.90;;
5026;SDS011;2532;52.480;13.354;2023-12-20T06:11:09;6.00;;;2.47;;
5026;SDS011;2532;52.480;13.354;2023-12-20T06:13:36;11.00;;;3.50;;
5026;SDS011;2532;52.480;13.354;2023-12-20T06:16:04;5.23;;;3.17;;
5026;SDS011;2532;52.480;13.354;2023-12-20T06:18:33;6.70;;;2.50;;
5026;SDS011;2532;52.480;13.354;2023-12-20T06:21:01;9.60;;;2.87;;
5026;SDS011;2532;52.480;13.354;2023-12-20T06:23:30;12.93;;;3.27;;
5026;SDS011;2532;52.480;13.354;2023-12-20T06:25:57;5.53;;;2.63;;
5026;SDS011;2532;52.480;13.354;2023-12-20T06:28:24;12.43;;;2.80;;
5026;SDS011;2532;52.480;13.354;2023-12-20T06:30:51;16.93;;;4.07;;
5026;SDS011;2532;52.480;13.354;2023-12-20T06:33:19;10.73;;;3.10;;
5026;SDS011;2532;52.480;13.354;2023-12-20T06:35:50;9.87;;;2.70;;
5026;SDS011;2532;52.480;13.354;2023-12-20T06:38:17;8.97;;;3.40;;
5026;SDS011;2532;52.480;13.354;2023-12-20T06:40:47;10.60;;;3.13;;
5026;SDS011;2532;52.480;13.354;2023-12-20T06:43:17;7.07;;;3.07;;
5026;SDS011;2532;52.480;13.354;2023-12-20T06:45:46;11.17;;;2.50;;
5026;SDS011;2532;52.480;13.354;2023-12-20T06:48:13;13.47;;;2.80;;
5026;SDS011;2532;52.480;13.354;2023-12-20T06:50:40;9.37;;;3.23;;
5026;SDS011;2532;52.480;13.354;2023-12-20T06:53:08;7.10;;;2.60;;
5026;SDS011;2532;52.480;13.354;2023-12-20T06:55:35;8.30;;;2.97;;
5026;SDS011;2532;52.480;13.354;2023-12-20T06:58:05;9.20;;;2.80;;
5026;SDS011;2532;52.480;13.354;2023-12-20T07:00:32;13.93;;;3.10;;
5026;SDS011;2532;52.480;13.354;2023-12-20T07:03:00;8.90;;;3.50;;
5026;SDS011;2532;52.480;13.354;2023-12-20T07:05:30;8.70;;;3.20;;
5026;SDS011;2532;52.480;13.354;2023-12-20T07:07:58;11.33;;;4.27;;
5026;SDS011;2532;52.480;13.354;2023-12-20T07:10:25;11.27;;;3.23;;
5026;SDS011;2532;52.480;13.354;2023-12-20T07:12:52;5.93;;;2.90;;
5026;SDS011;2532;52.480;13.354;2023-12-20T07:15:21;16.43;;;3.60;;
5026;SDS011;2532;52.480;13.354;2023-12-20T07:17:48;10.10;;;3.43;;
5026;SDS011;2532;52.480;13.354;2023-12-20T07:20:16;16.53;;;3.50;;
5026;SDS011;2532;52.480;13.354;2023-12-20T07:22:43;9.97;;;3.70;;
5026;SDS011;2532;52.480;13.354;2023-12-20T07:25:13;10.33;;;3.60;;
5026;SDS011;2532;52.480;13.354;2023-12-20T07:27:40;13.23;;;4.50;;
5026;SDS011;2532;52.480;13.354;2023-12-20T07:30:08;10.80;;;4.13;;
5026;SDS011;2532;52.480;13.354;2023-12-20T07:32:37;13.70;;;2.90;;
5026;SDS011;2532;52.480;13.354;2023-12-20T07:35:07;8.30;;;3.20;;
5026;SDS011;2532;52.480;13.354;2023-12-20T07:37:34;8.30;;;3.40;;
5026;SDS011;2532;52.480;13.354;2023-12-20T07:40:01;11.90;;;4.10;;
5026;SDS011;2532;52.480;13.354;2023-12-20T07:42:29;9.30;;;3.70;;
5026;SDS011;2532;52.480;13.354;2023-12-20T07:44:56;9.73;;;2.97;;
5026;SDS011;2532;52.480;13.354;2023-12-20T07:47:23;13.20;;;4.00;;
5026;SDS011;2532;52.480;13.354;2023-12-20T07:49:51;11.43;;;4.17;;
5026;SDS011;2532;52.480;13.354;2023-12-20T07:52:19;13.13;;;3.60;;
5026;SDS011;2532;52.480;13.354;2023-12-20T07:54:47;9.93;;;3.00;;
5026;SDS011;2532;52.480;13.354;2023-12-20T07:57:16;7.60;;;3.57;;
5026;SDS011;2532;52.480;13.354;2023-12-20T07:59:46;8.30;;;3.23;;
5026;SDS011;2532;52.480;13.354;2023-12-20T08:02:13;5.67;;;2.90;;
5026;SDS011;2532;52.480;13.354;2023-12-20T08:04:41;15.03;;;3.00;;
5026;SDS011;2532;52.480;13.354;2023-12-20T08:07:09;8.97;;;2.87;;
5026;SDS011;2532;52.480;13.354;2023-12-20T08:09:36;8.57;;;3.20;;
5026;SDS011;2532;52.480;13.354;2023-12-20T08:12:04;7.90;;;2.90;;
5026;SDS011;2532;52.480;13.354;2023-12-20T08:14:33;26.33;;;2.70;;
5026;SDS011;2532;52.480;13.354;2023-12-20T08:17:00;6.70;;;2.27;;
5026;SDS011;2532;52.480;13.354;2023-12-20T08:19:27;11.00;;;3.70;;
5026;SDS011;2532;52.480;13.354;2023-12-20T08:21:55;7.93;;;3.40;;
5026;SDS011;2532;52.480;13.354;2023-12-20T08:24:23;13.47;;;3.63;;
5026;SDS011;2532;52.480;13.354;2023-12-20T08:26:50;8.57;;;2.87;;
5026;SDS011;2532;52.480;13.354;2023-12-20T08:29:17;14.13;;;3.17;;
5026;SDS011;2532;52.480;13.354;2023-12-20T08:31:45;11.53;;;2.93;;
5026;SDS011;2532;52.480;13.354;2023-12-20T08:34:16;8.57;;;2.93;;
5026;SDS011;2532;52.480;13.354;2023-12-20T08:36:42;12.13;;;3.50;;
5026;SDS011;2532;52.480;13.354;2023-12-20T08:39:10;3.47;;;2.67;;
5026;SDS011;2532;52.480;13.354;2023-12-20T08:41:38;6.40;;;3.37;;
5026;SDS011;2532;52.480;13.354;2023-12-20T08:44:06;13.57;;;2.70;;
5026;SDS011;2532;52.480;13.354;2023-12-20T08:46:33;10.13;;;3.40;;
5026;SDS011;2532;52.480;13.354;2023-12-20T08:49:00;8.97;;;4.93;;
5026;SDS011;2532;52.480;13.354;2023-12-20T08:51:27;9.50;;;2.63;;
5026;SDS011;2532;52.480;13.354;2023-12-20T08:53:54;6.73;;;3.00;;
5026;SDS011;2532;52.480;13.354;2023-12-20T08:56:21;8.30;;;2.93;;
5026;SDS011;2532;52.480;13.354;2023-12-20T08:58:50;10.10;;;3.00;;
5026;SDS011;2532;52.480;13.354;2023-12-20T09:01:17;11.13;;;3.80;;
5026;SDS011;2532;52.480;13.354;2023-12-20T09:03:44;30.63;;;4.50;;
5026;SDS011;2532;52.480;13.354;2023-12-20T09:06:12;11.80;;;3.40;;
5026;SDS011;2532;52.480;13.354;2023-12-20T09:08:44;8.27;;;3.03;;
5026;SDS011;2532;52.480;13.354;2023-12-20T09:11:11;11.73;;;4.03;;
5026;SDS011;2532;52.480;13.354;2023-12-20T09:13:38;8.47;;;3.03;;
5026;SDS011;2532;52.480;13.354;2023-12-20T09:16:06;7.43;;;2.80;;
5026;SDS011;2532;52.480;13.354;2023-12-20T09:18:33;12.40;;;2.90;;
5026;SDS011;2532;52.480;13.354;2023-12-20T09:21:00;5.47;;;2.47;;
5026;SDS011;2532;52.480;13.354;2023-12-20T09:23:29;12.50;;;3.37;;
5026;SDS011;2532;52.480;13.354;2023-12-20T09:26:01;9.23;;;3.07;;
5026;SDS011;2532;52.480;13.354;2023-12-20T09:28:29;10.93;;;3.07;;
5026;SDS011;2532;52.480;13.354;2023-12-20T09:31:01;9.00;;;3.40;;
5026;SDS011;2532;52.480;13.354;2023-12-20T09:33:31;11.50;;;2.50;;
5026;SDS011;2532;52.480;13.354;2023-12-20T09:35:57;12.50;;;3.27;;
5026;SDS011;2532;52.480;13.354;2023-12-20T09:38:24;11.30;;;3.80;;
5026;SDS011;2532;52.480;13.354;2023-12-20T09:40:51;9.83;;;2.70;;
5026;SDS011;2532;52.480;13.354;2023-12-20T09:43:19;8.50;;;3.60;;
5026;SDS011;2532;52.480;13.354;2023-12-20T09:45:49;9.63;;;3.47;;
5026;SDS011;2532;52.480;13.354;2023-12-20T09:48:19;8.87;;;3.53;;
5026;SDS011;2532;52.480;13.354;2023-12-20T09:50:50;10.90;;;4.90;;
5026;SDS011;2532;52.480;13.354;2023-12-20T09:53:20;9.87;;;3.77;;
5026;SDS011;2532;52.480;13.354;2023-12-20T09:55:54;8.17;;;2.80;;
5026;SDS011;2532;52.480;13.354;2023-12-20T09:58:24;10.10;;;4.85;;
5026;SDS011;2532;52.480;13.354;2023-12-20T10:00:51;8.33;;;3.73;;
5026;SDS011;2532;52.480;13.354;2023-12-20T10:03:21;8.33;;;3.47;;
5026;SDS011;2532;52.480;13.354;2023-12-20T10:05:53;12.20;;;4.20;;
5026;SDS011;2532;52.480;13.354;2023-12-20T10:08:22;12.40;;;5.07;;
5026;SDS011;2532;52.480;13.354;2023-12-20T10:10:51;14.73;;;4.67;;
5026;SDS011;2532;52.480;13.354;2023-12-20T10:13:18;9.60;;;4.60;;
5026;SDS011;2532;52.480;13.354;2023-12-20T10:15:45;10.33;;;4.40;;
5026;SDS011;2532;52.480;13.354;2023-12-20T10:18:12;8.77;;;3.43;;
5026;SDS011;2532;52.480;13.354;2023-12-20T10:20:40;8.43;;;3.47;;
5026;SDS011;2532;52.480;13.354;2023-12-20T10:23:10;8.70;;;3.03;;
5026;SDS011;2532;52.480;13.354;2023-12-20T10:25:55;9.60;;;3.27;;
5026;SDS011;2532;52.480;13.354;2023-12-20T10:28:23;21.43;;;4.57;;
5026;SDS011;2532;52.480;13.354;2023-12-20T10:30:53;8.60;;;3.67;;
5026;SDS011;2532;52.480;13.354;2023-12-20T10:33:23;18.93;;;3.70;;
5026;SDS011;2532;52.480;13.354;2023-12-20T10:35:51;11.27;;;4.03;;
5026;SDS011;2532;52.480;13.354;2023-12-20T10:38:20;12.67;;;3.50;;
5026;SDS011;2532;52.480;13.354;2023-12-20T10:40:47;10.33;;;4.43;;
5026;SDS011;2532;52.480;13.354;2023-12-20T10:43:15;12.00;;;3.97;;
5026;SDS011;2532;52.480;13.354;2023-12-20T10:45:42;6.83;;;3.13;;
5026;SDS011;2532;52.480;13.354;2023-12-20T10:48:09;9.90;;;4.30;;
5026;SDS011;2532;52.480;13.354;2023-12-20T10:50:37;10.87;;;3.57;;
5026;SDS011;2532;52.480;13.354;2023-12-20T10:53:05;10.47;;;4.40;;
5026;SDS011;2532;52.480;13.354;2023-12-20T10:55:38;15.83;;;3.03;;
5026;SDS011;2532;52.480;13.354;2023-12-20T10:58:06;16.30;;;3.70;;
5026;SDS011;2532;52.480;13.354;2023-12-20T11:00:34;12.37;;;3.87;;
5026;SDS011;2532;52.480;13.354;2023-12-20T11:03:05;9.97;;;3.50;;
5026;SDS011;2532;52.480;13.354;2023-12-20T11:05:36;10.63;;;3.70;;
5026;SDS011;2532;52.480;13.354;2023-12-20T11:08:10;5.00;;;2.63;;
5026;SDS011;2532;52.480;13.354;2023-12-20T11:10:42;13.90;;;3.80;;
5026;SDS011;2532;52.480;13.354;2023-12-20T11:13:16;13.00;;;4.50;;
5026;SDS011;2532;52.480;13.354;2023-12-20T11:15:46;12.37;;;4.03;;
5026;SDS011;2532;52.480;13.354;2023-12-20T11:18:13;6.50;;;3.53;;
5026;SDS011;2532;52.480;13.354;2023-12-20T11:20:41;14.70;;;5.17;;
5026;SDS011;2532;52.480;13.354;2023-12-20T11:23:09;10.40;;;3.80;;
5026;SDS011;2532;52.480;13.354;2023-12-20T11:25:51;11.67;;;4.27;;
5026;SDS011;2532;52.480;13.354;2023-12-20T11:28:20;11.10;;;4.20;;
5026;SDS011;2532;52.480;13.354;2023-12-20T11:30:49;9.27;;;4.10;;
5026;SDS011;2532;52.480;13.354;2023-12-20T11:33:20;19.00;;;4.43;;
5026;SDS011;2532;52.480;13.354;2023-12-20T11:35:48;10.10;;;4.50;;
5026;SDS011;2532;52.480;13.354;2023-12-20T11:38:15;10.87;;;4.20;;
5026;SDS011;2532;52.480;13.354;2023-12-20T11:40:42;7.83;;;4.10;;
5026;SDS011;2532;52.480;13.354;2023-12-20T11:43:11;13.63;;;4.17;;
5026;SDS011;2532;52.480;13.354;2023-12-20T11:45:55;12.57;;;4.50;;
5026;SDS011;2532;52.480;13.354;2023-12-20T11:48:28;7.87;;;3.50;;
5026;SDS011;2532;52.480;13.354;2023-12-20T11:50:56;10.73;;;4.10;;
5026;SDS011;2532;52.480;13.354;2023-12-20T11:53:23;15.33;;;3.80;;
5026;SDS011;2532;52.480;13.354;2023-12-20T11:55:50;11.37;;;3.30;;
5026;SDS011;2532;52.480;13.354;2023-12-20T11:58:18;13.53;;;4.10;;
5026;SDS011;2532;52.480;13.354;2023-12-20T12:00:45;8.90;;;3.90;;
5026;SDS011;2532;52.480;13.354;2023-12-20T12:03:14;8.13;;;3.50;;
5026;SDS011;2532;52.480;13.354;2023-12-20T12:05:41;9.50;;;4.00;;
5026;SDS011;2532;52.480;13.354;2023-12-20T12:08:08;15.77;;;4.20;;
5026;SDS011;2532;52.480;13.354;2023-12-20T12:10:35;13.57;;;4.90;;
5026;SDS011;2532;52.480;13.354;2023-12-20T12:13:02;9.97;;;3.90;;
5026;SDS011;2532;52.480;13.354;2023-12-20T12:15:31;13.07;;;5.50;;
5026;SDS011;2532;52.480;13.354;2023-12-20T12:17:58;15.10;;;4.70;;
5026;SDS011;2532;52.480;13.354;2023-12-20T12:20:25;11.30;;;3.80;;
5026;SDS011;2532;52.480;13.354;2023-12-20T12:22:58;8.83;;;3.53;;
5026;SDS011;2532;52.480;13.354;2023-12-20T12:25:25;9.63;;;3.73;;
5026;SDS011;2532;52.480;13.354;2023-12-20T12:27:53;12.53;;;4.23;;
5026;SDS011;2532;52.480;13.354;2023-12-20T12:30:20;10.60;;;4.60;;
5026;SDS011;2532;52.480;13.354;2023-12-20T12:32:48;9.93;;;3.10;;
5026;SDS011;2532;52.480;13.354;2023-12-20T12:35:16;9.40;;;3.30;;
5026;SDS011;2532;52.480;13.354;2023-12-20T12:37:43;5.07;;;3.30;;
5026;SDS011;2532;52.480;13.354;2023-12-20T12:40:12;8.50;;;3.53;;
5026;SDS011;2532;52.480;13.354;2023-12-20T12:42:52;12.80;;;4.07;;
5026;SDS011;2532;52.480;13.354;2023-12-20T12:45:19;16.07;;;6.20;;
5026;SDS011;2532;52.480;13.354;2023-12-20T12:47:46;6.63;;;3.80;;
5026;SDS011;2532;52.480;13.354;2023-12-20T12:50:15;14.33;;;4.07;;
5026;SDS011;2532;52.480;13.354;2023-12-20T12:52:42;12.53;;;3.80;;
5026;SDS011;2532;52.480;13.354;2023-12-20T12:55:09;9.10;;;3.90;;
5026;SDS011;2532;52.480;13.354;2023-12-20T12:57:35;9.03;;;3.60;;
5026;SDS011;2532;52.480;13.354;2023-12-20T13:00:03;7.97;;;3.43;;
5026;SDS011;2532;52.480;13.354;2023-12-20T13:02:33;14.87;;;4.03;;
5026;SDS011;2532;52.480;13.354;2023-12-20T13:05:00;9.67;;;3.90;;
5026;SDS011;2532;52.480;13.354;2023-12-20T13:07:29;12.00;;;4.00;;
5026;SDS011;2532;52.480;13.354;2023-12-20T13:09:56;10.60;;;4.27;;
5026;SDS011;2532;52.480;13.354;2023-12-20T13:12:23;10.20;;;5.03;;
5026;SDS011;2532;52.480;13.354;2023-12-20T13:14:50;17.13;;;4.60;;
5026;SDS011;2532;52.480;13.354;2023-12-20T13:17:17;11.20;;;3.47;;
5026;SDS011;2532;52.480;13.354;2023-12-20T13:19:44;8.53;;;4.30;;
5026;SDS011;2532;52.480;13.354;2023-12-20T13:22:10;10.53;;;4.60;;
5026;SDS011;2532;52.480;13.354;2023-12-20T13:24:39;13.27;;;4.20;;
5026;SDS011;2532;52.480;13.354;2023-12-20T13:27:06;8.63;;;4.20;;
5026;SDS011;2532;52.480;13.354;2023-12-20T13:29:33;10.30;;;4.93;;
5026;SDS011;2532;52.480;13.354;2023-12-20T13:32:00;6.50;;;3.63;;
5026;SDS011;2532;52.480;13.354;2023-12-20T13:34:28;7.77;;;4.00;;
5026;SDS011;2532;52.480;13.354;2023-12-20T13:36:55;4.80;;;3.07;;
5026;SDS011;2532;52.480;13.354;2023-12-20T13:39:22;5.50;;;3.10;;
5026;SDS011;2532;52.480;13.354;2023-12-20T13:41:50;4.70;;;3.30;;
5026;SDS011;2532;52.480;13.354;2023-12-20T13:44:18;6.17;;;3.00;;
5026;SDS011;2532;52.480;13.354;2023-12-20T13:46:45;3.73;;;2.87;;
5026;SDS011;2532;52.480;13.354;2023-12-20T13:49:14;6.47;;;3.57;;
5026;SDS011;2532;52.480;13.354;2023-12-20T13:51:42;6.20;;;3.43;;
5026;SDS011;2532;52.480;13.354;2023-12-20T13:54:09;6.17;;;4.03;;
5026;SDS011;2532;52.480;13.354;2023-12-20T13:56:37;7.50;;;2.93;;
5026;SDS011;2532;52.480;13.354;2023-12-20T13:59:05;3.80;;;3.43;;
5026;SDS011;2532;52.480;13.354;2023-12-20T14:01:32;4.00;;;3.30;;
5026;SDS011;2532;52.480;13.354;2023-12-20T14:04:00;5.07;;;2.73;;
5026;SDS011;2532;52.480;13.354;2023-12-20T14:06:27;5.13;;;3.20;;
5026;SDS011;2532;52.480;13.354;2023-12-20T14:08:54;8.87;;;3.10;;
5026;SDS011;2532;52.480;13.354;2023-12-20T14:11:21;5.20;;;3.73;;
5026;SDS011;2532;52.480;13.354;2023-12-20T14:13:48;9.77;;;4.07;;
5026;SDS011;2532;52.480;13.354;2023-12-20T14:16:16;5.80;;;2.90;;
5026;SDS011;2532;52.480;13.354;2023-12-20T14:18:44;6.80;;;3.83;;
5026;SDS011;2532;52.480;13.354;2023-12-20T14:21:10;5.83;;;3.10;;
5026;SDS011;2532;52.480;13.354;2023-12-20T14:23:37;2.53;;;2.33;;
5026;SDS011;2532;52.480;13.354;2023-12-20T14:26:04;4.70;;;3.30;;
5026;SDS011;2532;52.480;13.354;2023-12-20T14:28:31;3.07;;;2.50;;
5026;SDS011;2532;52.480;13.354;2023-12-20T14:30:58;8.40;;;3.30;;
5026;SDS011;2532;52.480;13.354;2023-12-20T14:33:26;4.93;;;3.70;;
5026;SDS011;2532;52.480;13.354;2023-12-20T14:35:53;5.37;;;3.37;;
5026;SDS011;2532;52.480;13.354;2023-12-20T14:38:20;7.07;;;3.40;;
5026;SDS011;2532;52.480;13.354;2023-12-20T14:40:47;4.00;;;3.07;;
5026;SDS011;2532;52.480;13.354;2023-12-20T14:43:14;5.33;;;3.10;;
5026;SDS011;2532;52.480;13.354;2023-12-20T14:45:42;3.53;;;2.73;;
5026;SDS011;2532;52.480;13.354;2023-12-20T14:48:09;4.53;;;3.00;;
5026;SDS011;2532;52.480;13.354;2023-12-20T14:50:37;6.90;;;3.50;;
5026;SDS011;2532;52.480;13.354;2023-12-20T14:53:05;8.57;;;3.10;;
5026;SDS011;2532;52.480;13.354;2023-12-20T14:55:32;3.03;;;2.73;;
5026;SDS011;2532;52.480;13.354;2023-12-20T14:58:00;5.80;;;3.17;;
5026;SDS011;2532;52.480;13.354;2023-12-20T15:00:27;2.80;;;2.60;;
5026;SDS011;2532;52.480;13.354;2023-12-20T15:02:55;6.17;;;3.40;;